Calumet, MN (55716)

5:21 PM CDT on August 31, 2015 (GMT -0500)
Calumet, MN | | Change Station
CLOSE
Current Station
Personal Weather Station
Location: Bovey, MN
Elevation: 1381 ft
Nearby Weather Stations

Elev 1381 ft 47.32 °N, 93.28 °W | Updated 11 minutes ago

Clear
Clear
81.0 °F
Feels Like 84 °F
N
2.7
Wind Variable Wind from SSW

Today
High -- | Low -- °F
--% Chance of Precip.
Yesterday
High -- | Low -- °F
Precip. -- in
6:30 AM 7:55 PM
Waning Gibbous, 93% visible
Pressure 29.81 in
Visibility 10.0 miles
Clouds Clear
Heat Index 84 °F
Dew Point 68 °F
Humidity 64%
Rainfall in
Snow Depth Not available.
UV 3 out of 12
Pollen 11.00 out of 12
Air Quality Not available.
Flu Activity Not available.
METAR KHIB 312153Z AUTO 21006G16KT 10SM CLR 28/17 A2982 RMK AO2 SLP094 T02830172
Pressure 29.81 in
Visibility 10.0 miles
Clouds Clear
Heat Index 84 °F
Dew Point 68 °F
Humidity 64%
Rainfall in
Snow Depth Not available.
UV 3 out of 12
Pollen 11.00 out of 12
Air Quality Not available.
Flu Activity Not available.
METAR KHIB 312153Z AUTO 21006G16KT 10SM CLR 28/17 A2982 RMK AO2 SLP094 T02830172

10-Day Weather Forecast

×

Almanac

Astronomy

Aug. 31, 2015 Rise Set
Actual Time
Civil Twilight
Nautical Twilight
Astronomical Twilight
Moon
Length of Visible Light
Length of Day
Tomorrow will be .
, % of the Moon is Illuminated

Today's Extremes

State Highs State Lows

Community

WunderPhotos

Upload Photos

1,851,390 photos uploaded!

WunderBlogs® & News

Nearby

Air Quality

  Air Quality AQ Index Pollutant
Not available.

Snow Depth

Station Depth Elevation

Earthquake Activity

City Distance Mag. Time & Date
Minimum magnitude displayed is 2.5.

Coastal Water Temperatures

Place Temperature

Stations

Nearby Weather Stations

Station Location Temp. Windchill Dew Point Humidity Wind Precip. Elev Updated Type